Sherman Village, California
Current Conditions -  °F | °C
As of 2:53 AM on Friday 31 Oct 2014 (Local Time) from KBUR Reporting Station
Haze Haze  
Wind Chill: 60°   Ceiling: 600
Heat Index: 60°   Visibility: 6mi
Dew Point: 54°   Wind: 0mph
Humidity: 80%   Direction: NA
Pressure: 29.96"   Gusts: NA
Location:  34.1666°N, 118.399°W
Report Text: KBUR 310953Z 00000KT 6SM HZ BKN006 16/12 A2996 RMK AO2 SLP136 T01560122
Loading
Personal Weather Stations






























Interactive Weather Map
Tropical Storm Tracking
New forecast layout! Learn more

10-Day Weather Forecast

Advertisements
Track Severe Weather on mobile